Main page
METAR-TAF:

METAR-TAF

Airports :

Wiener Neustadt East Airport

Wiener Neustadt, Austria

latitude: 47-50-36N, longitude: 016-15-29E, elevation: 272 m

Current weather observation

The report was made 25 minutes ago, at 17:00 UTC
Wind 16 kt from the East
Temperature
Pressure

METAR: LOAN 221700Z 10016KT 30KM SCT060CU

Time: 19:25 (17:25 UTC)

Forecast

The report was made 2 hours and 13 minutes ago, at 15:12 UTC
Forecast valid from 22 at 15 UTC to 22 at 21 UTC
Wind 10 kt from the East/Northeast
Visibility 10 km or more
Few clouds at a height of 4000 ft
Temporary
from 22 at 15 UTC to 22 at 21 UTC
Broken clouds at a height of 8000 ft
Temporary
from 22 at 15 UTC to 22 at 21 UTC
Wind 20 kt from the East/Southeast with gusts up to 30 kt

TAF: LOAN 221512Z 2215/2221 06010KT 9999 FEW040 TEMPO 2215/2221 BKN080 TEMPO 2215/2221 12020G30KT

Weather observations and forecasts of more than 4000 airports (METAR and TAF reports).

The available stations are represented by yellow and red dots on the map.

Hover mouse over dot to see the name of the station.

Then click to see weather observations and forecasts.

To change the map : click on the green buttons with a black cross to zoom in, on the green button with a dash to zoom out, or on the green arrows for adjacent maps.


METAR-TAF: